Time;durP1;ratioP1;P1;durP2;ratioP2;P2;SDS_P1;SDS_P2;PMS_P1;PMS_P2;Temp;Humidity;BMP_temperature;BMP_pressure;BME280_temperature;BME280_humidity;BME280_pressure;Samples;Min_cycle;Max_cycle;Signal;HPM_P1;HPM_P2
2023/05/23 00:01:41;;;;;;;40.35;16.10;;;16.90;99.90;;;;;;4196555;28;20419;-56
2023/05/23 00:03:44;;;;;;;37.20;15.40;;;16.80;99.90;;;;;;4197236;28;20498;-56
2023/05/23 00:05:46;;;;;;;31.42;14.90;;;16.80;99.90;;;;;;4197431;28;20090;-57
2023/05/23 00:07:48;;;;;;;32.55;14.85;;;16.90;99.90;;;;;;4197071;28;20478;-56
2023/05/23 00:09:50;;;;;;;37.72;15.27;;;16.90;99.90;;;;;;4197469;28;20044;-57
2023/05/23 00:11:52;;;;;;;30.65;14.77;;;16.90;99.90;;;;;;4195408;28;20052;-56
2023/05/23 00:13:59;;;;;;;32.72;14.85;;;16.80;99.90;;;;;;4197070;28;20045;-58
2023/05/23 00:16:02;;;;;;;36.35;14.43;;;16.80;99.90;;;;;;4197469;28;20044;-56
2023/05/23 00:18:08;;;;;;;26.98;13.55;;;16.70;99.80;;;;;;4197161;28;20044;-56
2023/05/23 00:20:11;;;;;;;29.88;13.48;;;16.80;99.90;;;;;;4197528;28;20044;-56
2023/05/23 00:22:15;;;;;;;28.17;13.02;;;16.70;99.90;;;;;;4195870;28;20509;-56
2023/05/23 00:24:19;;;;;;;23.40;12.85;;;16.70;99.90;;;;;;4197218;28;20044;-56
2023/05/23 00:26:22;;;;;;;31.35;13.70;;;16.70;99.70;;;;;;4204642;28;20603;-65
2023/05/23 00:28:27;;;;;;;33.45;13.00;;;16.70;99.80;;;;;;4213945;28;20044;-56
2023/05/23 00:30:35;;;;;;;31.20;13.73;;;16.60;99.70;;;;;;4214103;28;20044;-55
2023/05/23 00:32:37;;;;;;;30.50;12.93;;;16.60;99.70;;;;;;4196560;28;20067;-56
2023/05/23 00:34:39;;;;;;;25.80;13.55;;;16.60;99.70;;;;;;4216075;28;20067;-55
2023/05/23 00:36:46;;;;;;;29.23;12.88;;;16.50;99.90;;;;;;4215692;28;20064;-56
2023/05/23 00:38:48;;;;;;;23.00;12.95;;;16.50;99.90;;;;;;4196152;28;20094;-57
2023/05/23 00:40:50;;;;;;;25.52;13.32;;;16.50;99.80;;;;;;4197098;28;20128;-58
2023/05/23 00:42:52;;;;;;;22.95;13.05;;;16.40;99.80;;;;;;4195886;28;20107;-55
2023/05/23 00:44:54;;;;;;;23.48;11.95;;;16.40;99.80;;;;;;4197187;28;20064;-56
2023/05/23 00:46:59;;;;;;;27.52;12.98;;;16.40;99.70;;;;;;4197099;28;20118;-58
2023/05/23 00:49:01;;;;;;;27.23;13.43;;;16.40;99.60;;;;;;4199418;28;20110;-57
2023/05/23 00:51:04;;;;;;;27.98;13.68;;;16.40;99.50;;;;;;4202108;28;20055;-56
2023/05/23 00:53:06;;;;;;;24.85;12.63;;;16.20;99.60;;;;;;4199942;28;20040;-56
2023/05/23 00:55:09;;;;;;;21.77;14.02;;;16.30;99.90;;;;;;4202667;28;20069;-57
2023/05/23 00:57:11;;;;;;;28.02;14.07;;;16.30;99.90;;;;;;4202471;28;20075;-57
2023/05/23 00:59:14;;;;;;;32.78;13.32;;;16.30;99.90;;;;;;4202494;28;20379;-55
2023/05/23 01:01:17;;;;;;;27.83;14.73;;;16.30;99.90;;;;;;4202648;28;20045;-56
2023/05/23 01:03:22;;;;;;;24.70;13.18;;;16.20;99.80;;;;;;4201237;28;20384;-62
2023/05/23 01:05:24;;;;;;;;;;;16.20;99.90;;;;;;4202494;28;20155;-57
2023/05/23 01:07:26;;;;;;;30.25;14.27;;;16.10;99.90;;;;;;4202188;28;19970;-56
2023/05/23 01:09:30;;;;;;;30.52;14.13;;;16.10;99.90;;;;;;4202497;28;20079;-56
2023/05/23 01:11:39;;;;;;;23.27;13.70;;;16.00;99.90;;;;;;4202557;28;20064;-57
2023/05/23 01:13:46;;;;;;;28.23;15.13;;;16.00;99.90;;;;;;4200480;28;20098;-57
2023/05/23 01:16:06;;;;;;;30.48;14.55;;;16.10;99.90;;;;;;4202136;28;20399;-57
2023/05/23 01:18:13;;;;;;;25.65;14.07;;;16.10;99.90;;;;;;4202292;28;20124;-57
2023/05/23 01:20:20;;;;;;;28.50;14.93;;;16.00;99.90;;;;;;4202351;28;20040;-56
2023/05/23 01:22:38;;;;;;;27.50;14.63;;;16.00;99.90;;;;;;4203484;28;20534;-57
2023/05/23 01:24:53;;;;;;;27.33;14.73;;;16.00;99.90;;;;;;4204861;28;20068;-56
2023/05/23 01:27:07;;;;;;;24.00;14.82;;;15.90;99.90;;;;;;4215361;28;20050;-57
2023/05/23 01:29:18;;;;;;;31.75;14.18;;;15.90;99.90;;;;;;4219870;28;20048;-56
2023/05/23 01:31:23;;;;;;;26.67;14.55;;;16.00;99.90;;;;;;4219211;28;20094;-55
2023/05/23 01:33:27;;;;;;;25.27;13.25;;;16.00;99.90;;;;;;4199579;28;20044;-57
2023/05/23 01:35:31;;;;;;;35.55;15.77;;;16.00;99.90;;;;;;4201161;28;20059;-56
2023/05/23 01:37:33;;;;;;;31.10;15.43;;;16.00;99.90;;;;;;4219115;28;20382;-56
2023/05/23 01:39:35;;;;;;;27.60;15.02;;;15.90;99.90;;;;;;4202887;28;20048;-57
2023/05/23 01:41:37;;;;;;;25.70;14.88;;;15.90;99.90;;;;;;4202171;28;20486;-57
2023/05/23 01:43:39;;;;;;;28.75;14.57;;;15.80;99.90;;;;;;4201115;28;20127;-57
2023/05/23 01:45:45;;;;;;;26.45;14.55;;;15.80;99.90;;;;;;4202197;28;20044;-57
2023/05/23 01:47:49;;;;;;;28.48;15.07;;;15.80;99.90;;;;;;4200424;28;20094;-57
2023/05/23 01:49:54;;;;;;;27.60;16.60;;;15.80;99.90;;;;;;4201922;28;20049;-56
2023/05/23 01:51:57;;;;;;;26.73;15.50;;;15.70;99.90;;;;;;4201230;28;20044;-56
2023/05/23 01:54:01;;;;;;;32.47;17.23;;;15.80;99.90;;;;;;4201805;28;20454;-56
2023/05/23 01:56:03;;;;;;;28.20;14.95;;;15.70;99.90;;;;;;4201965;28;20123;-57
2023/05/23 01:58:06;;;;;;;25.55;15.70;;;15.70;99.90;;;;;;4202007;28;20044;-55
2023/05/23 02:00:10;;;;;;;30.52;16.42;;;15.80;99.90;;;;;;4200862;28;20044;-58
2023/05/23 02:02:14;;;;;;;;;;;15.70;99.90;;;;;;4198819;28;20506;-57
2023/05/23 02:04:16;;;;;;;29.05;15.45;;;15.70;99.90;;;;;;4199266;28;19920;-57
2023/05/23 02:06:18;;;;;;;33.15;16.08;;;15.60;99.90;;;;;;4199353;28;20048;-56
2023/05/23 02:08:20;;;;;;;30.20;16.13;;;15.70;99.90;;;;;;4199419;28;20049;-57
2023/05/23 02:10:23;;;;;;;28.02;16.55;;;15.70;99.90;;;;;;4198058;28;20052;-56
2023/05/23 02:12:25;;;;;;;25.85;14.18;;;15.80;99.90;;;;;;4198441;28;20135;-56
2023/05/23 02:14:27;;;;;;;29.77;16.30;;;15.70;99.90;;;;;;4198985;28;20509;-55
2023/05/23 02:16:29;;;;;;;29.33;16.55;;;15.70;99.90;;;;;;4198941;28;20054;-56
2023/05/23 02:18:36;;;;;;;32.22;16.73;;;15.70;99.90;;;;;;4198811;28;20045;-57
2023/05/23 02:20:39;;;;;;;33.97;17.33;;;15.60;99.90;;;;;;4199014;28;20131;-56
2023/05/23 02:22:41;;;;;;;34.97;16.17;;;15.60;99.90;;;;;;4197816;28;20047;-57
2023/05/23 02:24:43;;;;;;;36.30;16.20;;;15.60;99.90;;;;;;4199099;28;20850;-55
2023/05/23 02:26:46;;;;;;;26.55;16.45;;;15.60;99.90;;;;;;4209137;28;20425;-56
2023/05/23 02:28:48;;;;;;;27.90;16.73;;;15.60;99.90;;;;;;4215741;28;20097;-56
2023/05/23 02:30:50;;;;;;;27.08;14.95;;;15.60;99.90;;;;;;4215685;28;20052;-56
2023/05/23 02:32:52;;;;;;;29.48;16.42;;;15.60;99.90;;;;;;4214230;28;20086;-55
2023/05/23 02:34:57;;;;;;;30.02;16.42;;;15.60;99.90;;;;;;4215543;28;20067;-56
2023/05/23 02:36:59;;;;;;;29.10;16.33;;;15.60;99.90;;;;;;4215354;28;20054;-56
2023/05/23 02:39:01;;;;;;;31.15;16.95;;;15.60;99.90;;;;;;4204261;28;20048;-56
2023/05/23 02:41:04;;;;;;;30.67;17.50;;;15.50;99.90;;;;;;4198758;28;20045;-57
2023/05/23 02:43:06;;;;;;;35.67;17.30;;;15.60;99.90;;;;;;4197580;28;20127;-56
2023/05/23 02:45:09;;;;;;;36.95;17.20;;;15.40;99.90;;;;;;4198808;28;20045;-56
2023/05/23 02:47:11;;;;;;;26.58;16.42;;;15.40;99.90;;;;;;4198545;28;20048;-64
2023/05/23 02:49:13;;;;;;;37.15;17.95;;;15.30;99.90;;;;;;4198352;28;20044;-56
2023/05/23 02:51:16;;;;;;;33.63;15.57;;;15.30;99.90;;;;;;4198703;28;20380;-54
2023/05/23 02:53:19;;;;;;;27.42;16.40;;;15.30;99.90;;;;;;4197642;28;20383;-56
2023/05/23 02:55:21;;;;;;;28.10;15.60;;;15.20;99.90;;;;;;4198420;28;20079;-56
2023/05/23 02:57:23;;;;;;;28.60;15.18;;;15.20;99.90;;;;;;4198570;28;20465;-56
2023/05/23 02:59:25;;;;;;;26.80;15.57;;;15.20;99.90;;;;;;4198535;28;20045;-57
2023/05/23 03:01:27;;;;;;;27.02;15.88;;;15.30;99.90;;;;;;4198134;28;20052;-55
2023/05/23 03:03:33;;;;;;;28.80;15.70;;;15.20;99.90;;;;;;4197237;28;20040;-56
2023/05/23 03:05:35;;;;;;;29.85;17.10;;;15.20;99.90;;;;;;4198395;28;20394;-57
2023/05/23 03:07:39;;;;;;;31.55;15.93;;;15.20;99.90;;;;;;4198308;28;20052;-57
2023/05/23 03:09:41;;;;;;;26.80;14.63;;;15.10;99.90;;;;;;4198529;28;20048;-53
2023/05/23 03:11:43;;;;;;;32.55;16.80;;;15.20;99.90;;;;;;4198047;28;20053;-58
2023/05/23 03:13:45;;;;;;;28.70;17.10;;;15.30;99.90;;;;;;4199115;28;20051;-65
2023/05/23 03:15:47;;;;;;;29.15;15.75;;;15.30;99.90;;;;;;4201302;28;20052;-56
2023/05/23 03:17:49;;;;;;;30.15;16.40;;;15.30;99.90;;;;;;4201076;28;20044;-57
2023/05/23 03:19:51;;;;;;;37.45;18.33;;;15.20;99.90;;;;;;4199598;28;20051;-56
2023/05/23 03:21:53;;;;;;;36.47;18.40;;;15.10;99.90;;;;;;4197448;28;20048;-56
2023/05/23 03:23:59;;;;;;;32.15;17.90;;;15.10;99.90;;;;;;4197009;28;20044;-57
2023/05/23 03:26:02;;;;;;;36.55;18.02;;;15.10;99.90;;;;;;4202290;28;20040;-57
2023/05/23 03:28:04;;;;;;;41.47;19.27;;;15.10;99.90;;;;;;4214915;28;20066;-56
2023/05/23 03:30:07;;;;;;;37.65;18.55;;;15.10;99.90;;;;;;4214704;28;20052;-56
2023/05/23 03:32:10;;;;;;;37.00;20.13;;;15.10;99.90;;;;;;4215538;28;20488;-56
2023/05/23 03:34:12;;;;;;;36.20;19.80;;;15.10;99.90;;;;;;4198287;28;20132;-56
2023/05/23 03:36:14;;;;;;;33.25;19.02;;;15.00;99.90;;;;;;4216387;28;20051;-57
2023/05/23 03:38:16;;;;;;;31.60;17.10;;;15.00;99.90;;;;;;4210835;28;20043;-58
2023/05/23 03:40:20;;;;;;;33.40;18.17;;;15.00;99.90;;;;;;4196698;28;20528;-57
2023/05/23 03:42:22;;;;;;;25.40;17.67;;;15.00;99.90;;;;;;4196954;28;20080;-57
2023/05/23 03:44:24;;;;;;;34.28;17.48;;;15.00;99.90;;;;;;4197102;28;20064;-57
2023/05/23 03:46:26;;;;;;;28.80;16.63;;;15.00;99.90;;;;;;4197587;28;20045;-56
2023/05/23 03:48:29;;;;;;;36.40;18.27;;;15.00;99.90;;;;;;4198112;28;20119;-56
2023/05/23 03:50:31;;;;;;;33.97;18.50;;;14.80;99.90;;;;;;4197690;28;20048;-55
2023/05/23 03:52:33;;;;;;;26.42;16.17;;;14.80;99.90;;;;;;4196611;28;20148;-56
2023/05/23 03:54:36;;;;;;;31.73;17.08;;;14.80;99.90;;;;;;4197394;28;20538;-55
2023/05/23 03:56:39;;;;;;;44.13;18.33;;;14.90;99.90;;;;;;4197502;28;20052;-62
2023/05/23 03:58:41;;;;;;;31.85;17.77;;;14.80;99.90;;;;;;4197118;28;20076;-56
2023/05/23 04:00:43;;;;;;;36.40;18.70;;;14.80;99.90;;;;;;4197883;28;20461;-56
2023/05/23 04:02:45;;;;;;;35.70;17.67;;;14.70;99.90;;;;;;4196765;28;20127;-57
2023/05/23 04:04:48;;;;;;;29.25;15.90;;;14.70;99.90;;;;;;4197208;28;20048;-56
2023/05/23 04:06:50;;;;;;;34.17;16.83;;;14.70;99.90;;;;;;4197498;28;20048;-56
2023/05/23 04:08:52;;;;;;;29.48;17.38;;;14.80;99.90;;;;;;4197266;28;20422;-56
2023/05/23 04:10:55;;;;;;;33.80;16.08;;;14.80;99.90;;;;;;4197165;28;20402;-55
2023/05/23 04:12:58;;;;;;;31.88;17.30;;;14.70;99.90;;;;;;4195977;28;20106;-56
2023/05/23 04:15:01;;;;;;;31.20;16.15;;;14.60;99.90;;;;;;4197250;28;20079;-57
2023/05/23 04:17:04;;;;;;;38.05;16.35;;;14.50;99.90;;;;;;4197402;28;20421;-56
2023/05/23 04:19:06;;;;;;;24.80;16.25;;;14.50;99.90;;;;;;4197248;28;20616;-57
2023/05/23 04:21:09;;;;;;;35.70;17.63;;;14.40;99.90;;;;;;4197139;28;20143;-56
2023/05/23 04:23:11;;;;;;;34.05;16.23;;;14.40;99.90;;;;;;4194926;28;20058;-56
2023/05/23 04:25:13;;;;;;;29.42;16.80;;;14.40;99.90;;;;;;4197234;28;20163;-56
2023/05/23 04:27:15;;;;;;;26.33;15.65;;;14.40;99.90;;;;;;4179059;28;20045;-56
2023/05/23 04:29:19;;;;;;;26.38;15.82;;;14.40;99.90;;;;;;4197145;28;20568;-56
2023/05/23 04:31:21;;;;;;;30.02;16.33;;;14.30;99.90;;;;;;4197029;28;20052;-57
2023/05/23 04:33:23;;;;;;;27.38;14.80;;;14.40;99.90;;;;;;4196659;28;20355;-56
2023/05/23 04:35:27;;;;;;;31.55;16.13;;;14.50;99.90;;;;;;4213942;28;20140;-56
2023/05/23 04:37:31;;;;;;;32.25;16.58;;;14.60;99.90;;;;;;4213865;28;20109;-56
2023/05/23 04:39:33;;;;;;;;;;;14.50;99.90;;;;;;4198644;28;20068;-56
2023/05/23 04:41:35;;;;;;;31.20;15.40;;;14.50;99.90;;;;;;4196545;28;19960;-57
2023/05/23 04:43:41;;;;;;;23.42;14.82;;;14.50;99.90;;;;;;4196233;28;20052;-55
2023/05/23 04:45:48;;;;;;;26.50;14.70;;;14.60;99.90;;;;;;4197180;28;20402;-56
2023/05/23 04:47:53;;;;;;;24.55;15.30;;;14.60;99.90;;;;;;4197115;28;20045;-56
2023/05/23 04:49:56;;;;;;;25.98;13.95;;;14.50;99.90;;;;;;4197187;28;20049;-56
2023/05/23 04:51:58;;;;;;;28.20;14.10;;;14.50;99.90;;;;;;4196769;28;20048;-58
2023/05/23 04:54:00;;;;;;;28.02;14.15;;;14.50;99.90;;;;;;4195823;28;20624;-56
2023/05/23 04:56:02;;;;;;;26.55;13.52;;;14.50;99.90;;;;;;4197056;28;20054;-55
2023/05/23 04:58:05;;;;;;;24.35;13.45;;;14.50;99.90;;;;;;4196690;28;20102;-56
2023/05/23 05:00:09;;;;;;;20.83;12.98;;;14.50;99.90;;;;;;4197044;28;20048;-56
2023/05/23 05:02:13;;;;;;;22.20;13.45;;;14.50;99.90;;;;;;4197086;28;20048;-57
2023/05/23 05:04:15;;;;;;;18.15;12.63;;;14.40;99.90;;;;;;4196566;28;20053;-60
2023/05/23 05:06:17;;;;;;;20.90;13.05;;;14.50;99.90;;;;;;4199565;28;20251;-59
2023/05/23 05:08:19;;;;;;;19.98;12.82;;;14.50;99.90;;;;;;4198362;28;20051;-64
2023/05/23 05:10:22;;;;;;;20.02;11.77;;;14.50;99.90;;;;;;4199561;28;20054;-57
2023/05/23 05:12:24;;;;;;;22.98;12.40;;;14.50;99.90;;;;;;4198145;28;20075;-55
2023/05/23 05:14:26;;;;;;;22.27;11.95;;;14.50;99.90;;;;;;4196516;28;20411;-57
2023/05/23 05:16:29;;;;;;;23.15;11.63;;;14.50;99.90;;;;;;4196704;28;20060;-55
2023/05/23 05:18:33;;;;;;;20.90;10.88;;;14.50;99.90;;;;;;4196735;28;20044;-56
2023/05/23 05:20:35;;;;;;;21.13;12.18;;;14.60;99.90;;;;;;4196918;28;20048;-57
2023/05/23 05:22:41;;;;;;;17.50;11.15;;;14.60;99.90;;;;;;4195978;28;20443;-56
2023/05/23 05:24:44;;;;;;;22.27;11.88;;;14.60;99.90;;;;;;4196764;28;20049;-58
2023/05/23 05:26:46;;;;;;;31.17;11.18;;;14.60;99.90;;;;;;4206823;28;20040;-57
2023/05/23 05:28:49;;;;;;;16.40;10.85;;;14.60;99.90;;;;;;4213434;28;20052;-56
2023/05/23 05:30:57;;;;;;;20.42;11.93;;;14.60;99.90;;;;;;4213621;28;20067;-57
2023/05/23 05:33:00;;;;;;;18.60;10.20;;;14.60;99.90;;;;;;4212702;28;20528;-58
2023/05/23 05:35:07;;;;;;;15.95;10.23;;;14.60;99.90;;;;;;4213302;28;20040;-57
2023/05/23 05:37:12;;;;;;;14.45;9.60;;;14.60;99.90;;;;;;4216280;28;20051;-56
2023/05/23 05:39:15;;;;;;;18.13;10.73;;;14.50;99.90;;;;;;4202871;28;20094;-57
2023/05/23 05:41:17;;;;;;;15.00;9.57;;;14.50;99.90;;;;;;4199382;28;20040;-58
2023/05/23 05:43:19;;;;;;;23.23;10.32;;;14.60;99.90;;;;;;4198261;28;20147;-57
2023/05/23 05:45:21;;;;;;;17.92;10.55;;;14.60;99.90;;;;;;4199625;28;20045;-56
2023/05/23 05:47:23;;;;;;;14.63;9.80;;;14.60;99.90;;;;;;4199464;28;20482;-57
2023/05/23 05:49:25;;;;;;;22.35;10.25;;;14.60;99.90;;;;;;4199438;28;20041;-56
2023/05/23 05:51:28;;;;;;;21.17;10.52;;;14.60;99.90;;;;;;4199808;28;20266;-56
2023/05/23 05:53:30;;;;;;;18.05;9.77;;;14.60;99.90;;;;;;4198449;28;20472;-57
2023/05/23 05:55:32;;;;;;;20.30;10.40;;;14.50;99.90;;;;;;4199161;28;20131;-56
2023/05/23 05:57:37;;;;;;;20.25;9.88;;;14.60;99.90;;;;;;4199193;28;20068;-57
2023/05/23 05:59:39;;;;;;;14.52;9.85;;;14.70;99.90;;;;;;4199518;28;20131;-56
2023/05/23 06:01:43;;;;;;;17.58;10.05;;;14.60;99.90;;;;;;4199309;28;20055;-57
2023/05/23 06:03:45;;;;;;;14.07;10.00;;;14.60;99.90;;;;;;4196912;28;20123;-56
2023/05/23 06:05:48;;;;;;;14.98;10.63;;;14.50;99.90;;;;;;4199433;28;20064;-56
2023/05/23 06:07:51;;;;;;;19.38;10.32;;;14.50;99.90;;;;;;4199450;28;20460;-57
2023/05/23 06:09:53;;;;;;;22.77;10.85;;;14.50;99.90;;;;;;4198767;28;20473;-56
2023/05/23 06:11:55;;;;;;;15.48;10.70;;;14.60;99.90;;;;;;4199289;28;20106;-56
2023/05/23 06:13:57;;;;;;;21.15;10.65;;;14.60;99.90;;;;;;4198198;28;20568;-55
2023/05/23 06:15:59;;;;;;;22.10;10.95;;;14.70;99.90;;;;;;4199655;28;20106;-56
2023/05/23 06:18:01;;;;;;;15.88;10.50;;;14.70;99.90;;;;;;4197910;28;20048;-56
2023/05/23 06:20:05;;;;;;;18.33;10.55;;;14.60;99.90;;;;;;4199280;28;20475;-55
2023/05/23 06:22:07;;;;;;;20.88;10.98;;;14.50;99.90;;;;;;4199064;28;20086;-56
2023/05/23 06:24:11;;;;;;;16.58;11.00;;;14.70;99.90;;;;;;4197844;28;20076;-56
2023/05/23 06:26:14;;;;;;;23.88;12.32;;;14.70;99.90;;;;;;4205268;28;20044;-56
2023/05/23 06:28:20;;;;;;;19.90;11.60;;;14.70;99.90;;;;;;4216070;28;20075;-56
2023/05/23 06:30:23;;;;;;;22.08;13.18;;;14.70;99.90;;;;;;4216029;28;20040;-57
2023/05/23 06:32:25;;;;;;;21.50;12.00;;;14.80;99.90;;;;;;4218935;28;20048;-57
2023/05/23 06:34:27;;;;;;;22.75;11.88;;;14.80;99.90;;;;;;4217671;28;20040;-56
2023/05/23 06:36:30;;;;;;;21.13;12.38;;;14.80;99.90;;;;;;4219477;28;20135;-60
2023/05/23 06:38:32;;;;;;;19.77;12.98;;;14.80;99.90;;;;;;4208868;28;20122;-56
2023/05/23 06:40:36;;;;;;;21.05;12.95;;;14.80;99.90;;;;;;4199051;28;20131;-56
2023/05/23 06:42:38;;;;;;;21.63;12.85;;;14.80;99.90;;;;;;4198797;28;20060;-57
2023/05/23 06:44:40;;;;;;;29.15;14.90;;;14.80;99.90;;;;;;4197792;28;20120;-56
2023/05/23 06:46:44;;;;;;;22.30;13.52;;;14.70;99.90;;;;;;4198687;28;20049;-57
2023/05/23 06:48:46;;;;;;;;;;;14.80;99.90;;;;;;4199217;28;20048;-56
2023/05/23 06:51:09;;;;;;;22.25;12.70;;;14.80;99.90;;;;;;4199080;28;20382;-56
2023/05/23 06:53:11;;;;;;;25.60;14.05;;;14.70;99.90;;;;;;4197510;28;20152;-55
2023/05/23 06:55:17;;;;;;;23.58;14.48;;;14.80;99.90;;;;;;4198714;28;20417;-63
2023/05/23 06:57:20;;;;;;;22.52;13.30;;;14.60;99.90;;;;;;4201001;28;20062;-57
2023/05/23 06:59:22;;;;;;;25.92;13.98;;;14.60;99.90;;;;;;4202244;28;20375;-66
2023/05/23 07:01:25;;;;;;;26.75;14.43;;;14.70;99.90;;;;;;4201464;28;20045;-58
2023/05/23 07:03:27;;;;;;;22.98;14.15;;;14.80;99.90;;;;;;4198314;28;20398;-56
2023/05/23 07:05:29;;;;;;;23.17;13.02;;;14.80;99.90;;;;;;4198355;28;20048;-55
2023/05/23 07:07:31;;;;;;;24.05;15.25;;;14.90;99.90;;;;;;4196599;28;20040;-56
2023/05/23 07:09:34;;;;;;;28.98;13.98;;;15.00;99.90;;;;;;4198247;28;20113;-54
2023/05/23 07:11:38;;;;;;;25.42;14.90;;;14.90;99.90;;;;;;4197369;28;20131;-54
2023/05/23 07:13:41;;;;;;;30.30;16.02;;;15.00;99.90;;;;;;4197361;28;20128;-57
2023/05/23 07:15:43;;;;;;;29.40;14.88;;;15.00;99.90;;;;;;4205173;28;20214;-55
2023/05/23 07:17:46;;;;;;;27.08;13.35;;;15.00;99.90;;;;;;4213531;28;20105;-56
2023/05/23 07:19:48;;;;;;;23.75;14.18;;;15.20;99.90;;;;;;4191180;28;20049;-57
2023/05/23 07:21:50;;;;;;;30.45;15.50;;;15.20;99.90;;;;;;4197689;28;20052;-55
2023/05/23 07:23:52;;;;;;;29.73;16.15;;;15.20;99.90;;;;;;4202631;28;20046;-55
2023/05/23 07:25:54;;;;;;;25.42;14.77;;;15.10;99.90;;;;;;4207627;28;20192;-56
2023/05/23 07:28:04;;;;;;;26.73;15.82;;;15.00;99.90;;;;;;4194138;28;20363;-56
2023/05/23 07:30:09;;;;;;;27.83;14.48;;;15.00;99.90;;;;;;4203238;28;20040;-56
2023/05/23 07:32:11;;;;;;;32.15;16.20;;;15.20;99.90;;;;;;4214724;28;20050;-56
2023/05/23 07:34:13;;;;;;;32.05;14.77;;;15.20;99.90;;;;;;4193476;28;20452;-57
2023/05/23 07:36:15;;;;;;;21.95;14.30;;;15.20;99.90;;;;;;4203813;28;20130;-56
2023/05/23 07:38:19;;;;;;;24.33;13.35;;;15.20;99.90;;;;;;4202384;28;20071;-55
2023/05/23 07:40:24;;;;;;;23.33;12.88;;;15.30;99.90;;;;;;4202924;28;20106;-56
2023/05/23 07:42:26;;;;;;;23.42;13.85;;;15.30;99.90;;;;;;4212418;28;20048;-55
2023/05/23 07:44:28;;;;;;;22.20;13.15;;;15.20;99.90;;;;;;4208566;28;20039;-56
2023/05/23 07:46:32;;;;;;;21.23;13.23;;;15.30;99.90;;;;;;4210940;28;20055;-57
2023/05/23 07:48:35;;;;;;;24.40;13.32;;;15.30;99.90;;;;;;4205844;28;20051;-58
2023/05/23 07:50:39;;;;;;;23.23;13.00;;;15.40;99.90;;;;;;4203232;28;20045;-58
2023/05/23 07:52:42;;;;;;;19.52;12.05;;;15.50;99.90;;;;;;4214947;28;20074;-55
2023/05/23 07:54:44;;;;;;;20.25;12.48;;;15.40;99.90;;;;;;4208782;28;20080;-55
2023/05/23 07:56:46;;;;;;;20.80;12.02;;;15.30;99.90;;;;;;4206085;28;20079;-56
2023/05/23 07:58:48;;;;;;;24.45;12.80;;;15.30;99.90;;;;;;4213387;28;20082;-55
2023/05/23 08:00:51;;;;;;;25.52;11.90;;;15.30;99.90;;;;;;4207534;28;20523;-56
2023/05/23 08:02:55;;;;;;;30.45;12.38;;;15.40;99.90;;;;;;4195540;28;20503;-56
2023/05/23 08:04:58;;;;;;;28.23;11.75;;;15.50;99.90;;;;;;4201661;28;20053;-56
2023/05/23 08:07:01;;;;;;;22.83;11.95;;;15.50;99.90;;;;;;4211304;28;20143;-56
2023/05/23 08:09:07;;;;;;;21.77;10.98;;;15.50;99.90;;;;;;4205286;28;20108;-55
2023/05/23 08:11:09;;;;;;;16.63;11.30;;;15.40;99.90;;;;;;4210707;28;20051;-53
2023/05/23 08:13:11;;;;;;;21.25;11.57;;;15.40;99.90;;;;;;4212433;28;20078;-54
2023/05/23 08:15:13;;;;;;;21.23;11.88;;;15.30;99.90;;;;;;4191396;28;20064;-56
2023/05/23 08:17:15;;;;;;;22.58;11.10;;;15.30;99.90;;;;;;4205713;28;20040;-56
2023/05/23 08:19:19;;;;;;;26.33;12.32;;;15.40;99.90;;;;;;4212453;28;20040;-56
2023/05/23 08:21:22;;;;;;;18.83;12.10;;;15.40;99.90;;;;;;4202151;28;20052;-58
2023/05/23 08:23:24;;;;;;;21.27;11.90;;;15.40;99.90;;;;;;4193526;28;20055;-56
2023/05/23 08:25:30;;;;;;;25.90;11.75;;;15.40;99.90;;;;;;4199065;28;20044;-56
2023/05/23 08:27:34;;;;;;;22.63;13.18;;;15.40;99.90;;;;;;4211824;28;20051;-56
2023/05/23 08:29:37;;;;;;;23.13;12.57;;;15.40;99.90;;;;;;4213017;28;20044;-59
2023/05/23 08:31:39;;;;;;;23.92;13.23;;;15.40;99.90;;;;;;4203454;28;20044;-56
2023/05/23 08:33:43;;;;;;;24.52;12.10;;;15.40;99.90;;;;;;4202632;28;20055;-56
2023/05/23 08:35:47;;;;;;;23.67;13.32;;;15.40;99.90;;;;;;4208216;28;20041;-56
2023/05/23 08:37:50;;;;;;;25.23;13.82;;;15.40;99.90;;;;;;4207872;28;20048;-56
2023/05/23 08:39:53;;;;;;;25.25;13.60;;;15.40;99.90;;;;;;4212888;28;20040;-56
2023/05/23 08:41:55;;;;;;;24.00;14.35;;;15.40;99.90;;;;;;4209044;28;20076;-56
2023/05/23 08:43:58;;;;;;;24.92;13.65;;;15.40;99.90;;;;;;4210310;28;20055;-55
2023/05/23 08:46:03;;;;;;;23.90;14.15;;;15.40;99.90;;;;;;4209440;28;20403;-55
2023/05/23 08:48:08;;;;;;;24.60;14.40;;;15.30;99.90;;;;;;4207163;28;20051;-56
2023/05/23 08:50:13;;;;;;;28.27;14.07;;;15.30;99.90;;;;;;4195563;28;20052;-55
2023/05/23 08:52:20;;;;;;;;;;;15.30;99.90;;;;;;4209319;28;20048;-58
2023/05/23 08:54:24;;;;;;;24.90;14.38;;;15.30;99.90;;;;;;4198988;28;20403;-60
2023/05/23 08:56:27;;;;;;;27.52;14.63;;;15.30;99.90;;;;;;4198936;28;20047;-55
2023/05/23 08:58:30;;;;;;;22.35;13.77;;;15.20;99.90;;;;;;4211727;28;20044;-55
2023/05/23 09:00:33;;;;;;;22.27;14.90;;;15.20;99.90;;;;;;4207840;28;20079;-56
2023/05/23 09:02:36;;;;;;;31.02;14.05;;;15.20;99.90;;;;;;4200915;28;20058;-56
2023/05/23 09:04:38;;;;;;;28.20;14.98;;;15.20;99.90;;;;;;4208767;28;20550;-56
2023/05/23 09:06:40;;;;;;;20.88;14.68;;;15.20;99.90;;;;;;4207311;28;20037;-56
2023/05/23 09:08:45;;;;;;;21.45;13.60;;;15.30;99.90;;;;;;4209676;28;20086;-56
2023/05/23 09:10:51;;;;;;;20.23;13.03;;;15.30;99.90;;;;;;4215010;28;20431;-56
2023/05/23 09:12:54;;;;;;;25.92;14.10;;;15.40;99.90;;;;;;4211393;28;20448;-56
2023/05/23 09:14:56;;;;;;;28.63;14.02;;;15.40;99.90;;;;;;4201689;28;20054;-56
2023/05/23 09:17:01;;;;;;;25.73;14.60;;;15.50;99.90;;;;;;4195503;28;20041;-56
2023/05/23 09:19:12;;;;;;;30.52;14.40;;;15.60;99.90;;;;;;4210227;28;20071;-56
2023/05/23 09:21:15;;;;;;;32.72;14.23;;;15.60;99.90;;;;;;4186186;28;20044;-56
2023/05/23 09:23:18;;;;;;;29.98;14.93;;;15.70;99.90;;;;;;4212879;28;20052;-54
2023/05/23 09:25:21;;;;;;;33.97;15.18;;;15.70;99.90;;;;;;4215882;28;20478;-56
2023/05/23 09:27:24;;;;;;;24.70;14.43;;;15.60;99.90;;;;;;4212399;28;20041;-57
2023/05/23 09:29:27;;;;;;;32.33;14.73;;;15.50;99.90;;;;;;4211114;28;20048;-56
2023/05/23 09:31:31;;;;;;;25.70;14.10;;;15.50;99.90;;;;;;4199707;28;20051;-60
2023/05/23 09:33:39;;;;;;;26.58;14.00;;;15.50;99.90;;;;;;4206561;28;20062;-57
2023/05/23 09:35:44;;;;;;;29.95;14.00;;;15.50;99.90;;;;;;4216190;28;20078;-57
2023/05/23 09:37:45;;;;;;;;;;;15.50;99.90;;;;;;4217668;28;20412;-57
2023/05/23 09:39:48;;;;;;;29.63;15.32;;;15.50;99.90;;;;;;4215336;28;19923;-56
2023/05/23 09:41:51;;;;;;;30.58;16.23;;;15.50;99.90;;;;;;4216148;28;20052;-57
2023/05/23 09:43:54;;;;;;;29.25;16.83;;;15.50;99.90;;;;;;4206442;28;20076;-58
2023/05/23 09:45:59;;;;;;;;;;;15.50;99.90;;;;;;4195635;28;20066;-56
2023/05/23 09:48:02;;;;;;;39.47;15.23;;;15.60;99.90;;;;;;4214133;28;19928;-56
2023/05/23 09:50:06;;;;;;;31.35;15.35;;;15.50;99.90;;;;;;4215410;28;20040;-57
2023/05/23 09:52:09;;;;;;;22.55;13.40;;;15.50;99.90;;;;;;4216256;28;20070;-56
2023/05/23 09:54:11;;;;;;;26.77;14.48;;;15.50;99.90;;;;;;4204793;28;20064;-57
2023/05/23 09:56:16;;;;;;;29.85;13.18;;;15.50;99.90;;;;;;4208236;28;20044;-55
2023/05/23 09:58:22;;;;;;;23.08;12.20;;;15.50;99.90;;;;;;4213759;28;20044;-55
2023/05/23 10:00:24;;;;;;;25.00;12.02;;;15.40;99.90;;;;;;4214077;28;20079;-56
2023/05/23 10:02:52;;;;;;;25.25;11.55;;;15.40;99.90;;;;;;4214830;28;20040;-57
2023/05/23 10:04:58;;;;;;;22.63;12.15;;;15.30;99.90;;;;;;4210205;28;20117;-56
2023/05/23 10:07:06;;;;;;;20.98;12.45;;;15.30;99.90;;;;;;4202172;28;20048;-57
2023/05/23 10:09:14;;;;;;;21.13;11.93;;;15.30;99.90;;;;;;4203299;28;20363;-56
2023/05/23 10:11:48;;;;;;;15.93;11.10;;;15.20;99.90;;;;;;4208033;28;20139;-57
2023/05/23 10:13:52;;;;;;;20.42;11.63;;;15.30;99.90;;;;;;4212292;28;20631;-56
2023/05/23 10:16:01;;;;;;;20.42;10.25;;;15.30;99.90;;;;;;4208343;28;20044;-57
2023/05/23 10:18:09;;;;;;;17.83;12.13;;;15.30;99.90;;;;;;4215114;28;20040;-56
2023/05/23 10:20:15;;;;;;;24.90;11.95;;;15.40;99.90;;;;;;4211245;28;20048;-57
2023/05/23 10:22:19;;;;;;;20.10;10.93;;;15.40;99.90;;;;;;4182582;28;20053;-56
2023/05/23 10:24:25;;;;;;;21.38;10.63;;;15.50;99.90;;;;;;4199201;28;20433;-56
2023/05/23 10:26:27;;;;;;;21.50;11.57;;;15.50;99.90;;;;;;4215474;28;20063;-56
2023/05/23 10:28:30;;;;;;;21.58;12.02;;;15.40;99.90;;;;;;4215260;28;20118;-57